Time;durP1;ratioP1;P1;durP2;ratioP2;P2;SDS_P1;SDS_P2;PMS_P1;PMS_P2;Temp;Humidity;BMP_temperature;BMP_pressure;BME280_temperature;BME280_humidity;BME280_pressure;Samples;Min_cycle;Max_cycle;Signal;HPM_P1;HPM_P2
2022/07/15 00:01:04;;;;;;;3.15;1.67;;;;;;;23.75;51.06;94727.81;5052624;28;20191;-84
2022/07/15 00:03:31;;;;;;;3.83;1.95;;;;;;;23.72;51.06;94730.06;5054927;28;20205;-81
2022/07/15 00:05:59;;;;;;;2.92;2.22;;;;;;;23.85;51.02;94750.00;5073036;28;20561;-82
2022/07/15 00:08:28;;;;;;;3.63;2.00;;;;;;;23.83;51.18;94758.03;5072121;28;20183;-83
2022/07/15 00:10:55;;;;;;;2.38;2.17;;;;;;;23.66;51.26;94736.97;5072493;28;20182;-82
2022/07/15 00:13:23;;;;;;;7.68;2.22;;;;;;;23.77;51.34;94751.88;5056522;28;20679;-82
2022/07/15 00:15:50;;;;;;;4.20;2.38;;;;;;;23.58;51.40;94723.38;5058112;28;20240;-82
2022/07/15 00:18:17;;;;;;;2.72;2.05;;;;;;;23.63;51.42;94734.75;5071816;28;20178;-82
2022/07/15 00:20:44;;;;;;;2.28;2.08;;;;;;;23.52;51.53;94714.56;5072567;28;20197;-83
2022/07/15 00:23:13;;;;;;;2.40;2.15;;;;;;;23.74;51.65;94754.91;5072596;28;20273;-82
2022/07/15 00:25:40;;;;;;;3.83;2.20;;;;;;;23.72;51.68;94759.56;5072247;28;20187;-84
2022/07/15 00:28:09;;;;;;;3.70;2.17;;;;;;;23.71;51.68;94758.00;5070314;28;20712;-83
2022/07/15 00:30:40;;;;;;;5.55;2.40;;;;;;;23.68;51.70;94757.63;5072945;28;20182;-83
2022/07/15 00:33:08;;;;;;;2.42;2.20;;;;;;;23.66;51.88;94759.63;5072697;28;20186;-83
2022/07/15 00:35:37;;;;;;;3.10;1.80;;;;;;;23.65;51.87;94758.84;5068255;28;20593;-84
2022/07/15 00:38:04;;;;;;;3.63;2.30;;;;;;;23.18;51.83;94680.16;5052414;28;20199;-83
2022/07/15 00:40:40;;;;;;;3.20;2.30;;;;;;;23.62;52.10;94746.22;5052822;28;20305;-82
2022/07/15 00:43:07;;;;;;;6.57;2.30;;;;;;;23.61;52.03;94754.25;5051930;28;20194;-84
2022/07/15 00:45:34;;;;;;;2.97;1.77;;;;;;;23.59;51.95;94751.06;5053330;28;20180;-83
2022/07/15 00:48:01;;;;;;;4.13;2.10;;;;;;;23.41;52.37;94723.94;5052586;28;20662;-83
2022/07/15 00:50:30;;;;;;;5.75;2.30;;;;;;;23.57;52.35;94753.06;5058647;28;20190;-82
2022/07/15 00:53:01;;;;;;;4.85;2.45;;;;;;;23.54;52.53;94741.28;5074564;28;20191;-82
2022/07/15 00:55:30;;;;;;;5.47;2.45;;;;;;;23.53;52.49;94737.03;5070399;28;20214;-83
2022/07/15 00:58:03;;;;;;;2.50;1.88;;;;;;;23.51;52.58;94726.03;5071166;28;20193;-82
2022/07/15 01:00:30;;;;;;;6.45;2.25;;;;;;;23.49;52.80;94731.47;5075063;28;20236;-82
2022/07/15 01:02:58;;;;;;;5.93;2.03;;;;;;;23.49;52.61;94730.69;5080898;28;20646;-82
2022/07/15 01:05:26;;;;;;;4.35;2.38;;;;;;;23.30;52.83;94701.13;5075165;28;20197;-84
2022/07/15 01:07:54;;;;;;;7.25;2.15;;;;;;;23.48;52.66;94729.06;5074462;28;20581;-81
2022/07/15 01:10:23;;;;;;;3.60;1.88;;;;;;;23.46;52.74;94724.06;5070996;28;20190;-82
2022/07/15 01:12:52;;;;;;;3.05;1.80;;;;;;;23.31;52.79;94710.56;5058678;28;20404;-83
2022/07/15 01:15:20;;;;;;;2.97;1.90;;;;;;;22.77;52.93;94625.97;5056905;28;20214;-82
2022/07/15 01:17:48;;;;;;;3.78;1.88;;;;;;;23.41;52.71;94728.34;5070769;28;20198;-83
2022/07/15 01:20:16;;;;;;;3.72;1.85;;;;;;;23.39;52.85;94727.75;5070096;28;20186;-82
2022/07/15 01:22:47;;;;;;;3.47;1.90;;;;;;;23.36;52.67;94722.97;5071064;28;20190;-81
2022/07/15 01:25:14;;;;;;;3.53;2.08;;;;;;;23.34;52.58;94723.19;5070880;28;20186;-82
2022/07/15 01:27:41;;;;;;;4.18;2.20;;;;;;;23.33;52.56;94726.03;5070926;28;20222;-82
2022/07/15 01:30:11;;;;;;;2.28;1.95;;;;;;;23.31;52.52;94717.59;5070499;28;20871;-83
2022/07/15 01:32:38;;;;;;;4.00;1.98;;;;;;;23.28;52.82;94724.84;5052906;28;20249;-83
2022/07/15 01:35:06;;;;;;;3.20;2.05;;;;;;;23.26;52.92;94711.22;5059225;28;20205;-82
2022/07/15 01:37:33;;;;;;;2.35;2.03;;;;;;;23.25;52.73;94717.44;5069832;28;20182;-83
2022/07/15 01:40:01;;;;;;;2.53;2.30;;;;;;;23.24;53.02;94721.06;5070721;28;20212;-82
2022/07/15 01:42:28;;;;;;;2.65;1.80;;;;;;;22.55;52.94;94609.94;5059328;28;20191;-82
2022/07/15 01:44:55;;;;;;;2.63;1.80;;;;;;;23.21;53.04;94718.88;5050559;28;20195;-82
2022/07/15 01:47:21;;;;;;;2.00;1.80;;;;;;;23.21;53.08;94723.31;5050723;28;20257;-83
2022/07/15 01:49:48;;;;;;;2.47;1.90;;;;;;;22.95;53.14;94675.59;5050517;28;20210;-81
2022/07/15 01:52:15;;;;;;;1.95;1.77;;;;;;;23.21;52.97;94725.91;5050421;28;20187;-82
2022/07/15 01:54:43;;;;;;;2.20;1.60;;;;;;;23.17;53.22;94720.34;5058089;28;20550;-83
2022/07/15 01:57:11;;;;;;;1.95;1.73;;;;;;;23.16;53.20;94723.16;5070043;28;20639;-84
2022/07/15 01:59:38;;;;;;;2.58;1.70;;;;;;;23.14;53.32;94722.56;5070625;28;20194;-84
2022/07/15 02:02:05;;;;;;;1.92;1.83;;;;;;;23.12;53.39;94724.59;5070162;28;20627;-82
2022/07/15 02:04:32;;;;;;;2.00;1.90;;;;;;;22.71;53.38;94658.94;5061454;28;20203;-82
2022/07/15 02:06:58;;;;;;;3.00;1.90;;;;;;;23.09;53.51;94727.63;5050216;28;20194;-81
2022/07/15 02:09:26;;;;;;;8.15;1.92;;;;;;;23.08;53.37;94720.81;5050511;28;20182;-83
2022/07/15 02:11:53;;;;;;;2.33;2.10;;;;;;;22.16;53.31;94574.56;5050268;28;20582;-83
2022/07/15 02:14:21;;;;;;;1.95;1.48;;;;;;;23.03;53.42;94721.47;5050833;28;20196;-83
2022/07/15 02:16:48;;;;;;;2.20;1.80;;;;;;;22.57;53.37;94654.00;5050062;28;20217;-83
2022/07/15 02:19:15;;;;;;;2.08;1.77;;;;;;;23.00;53.39;94714.06;5058879;28;20195;-82
2022/07/15 02:21:42;;;;;;;2.33;1.90;;;;;;;23.00;53.29;94721.88;5070273;28;20190;-82
2022/07/15 02:24:09;;;;;;;3.78;2.10;;;;;;;22.99;53.28;94722.91;5070331;28;20209;-82
2022/07/15 02:26:36;;;;;;;2.03;1.83;;;;;;;22.97;53.60;94722.31;5070182;28;20198;-82
2022/07/15 02:29:03;;;;;;;2.33;1.90;;;;;;;22.11;53.40;94590.00;5070313;28;20623;-83
2022/07/15 02:31:31;;;;;;;7.07;1.88;;;;;;;22.94;53.60;94714.94;5069412;28;20783;-82
2022/07/15 02:33:58;;;;;;;1.75;1.65;;;;;;;22.60;53.71;94670.03;5061411;28;20202;-81
2022/07/15 02:36:25;;;;;;;5.97;2.08;;;;;;;22.92;53.72;94719.53;5050708;28;20215;-82
2022/07/15 02:38:52;;;;;;;2.00;1.55;;;;;;;22.63;53.59;94669.63;5049767;28;20685;-82
2022/07/15 02:41:19;;;;;;;4.35;1.90;;;;;;;22.51;53.96;94655.66;5050462;28;20182;-83
2022/07/15 02:43:46;;;;;;;1.80;1.70;;;;;;;22.86;53.70;94713.34;5050010;28;20218;-84
2022/07/15 02:46:13;;;;;;;2.20;1.90;;;;;;;22.86;53.86;94717.78;5049616;28;20198;-83
2022/07/15 05:44:19;;;;;;;4.88;2.55;;;;;;;29.72;45.25;94723.97;5647567;23;20702;-76
2022/07/15 05:46:45;;;;;;;12.48;2.83;;;;;;;30.09;43.96;94725.69;4989158;28;20212;-76
2022/07/15 05:49:12;;;;;;;7.28;2.78;;;;;;;30.45;43.36;94731.91;4990361;28;20196;-77
2022/07/15 05:51:39;;;;;;;6.95;2.55;;;;;;;30.80;42.58;94738.31;4990235;28;20722;-77
2022/07/15 05:54:06;;;;;;;7.47;2.72;;;;;;;31.01;42.20;94718.78;4990657;28;20660;-77
2022/07/15 05:56:33;;;;;;;8.18;2.58;;;;;;;31.35;41.65;94723.53;4991093;28;20204;-77
2022/07/15 05:59:00;;;;;;;12.13;2.40;;;;;;;31.68;40.73;94732.69;4990802;28;20199;-76
2022/07/15 06:01:29;;;;;;;4.60;2.47;;;;;;;31.95;40.19;94735.00;4990556;28;20287;-77
2022/07/15 06:03:56;;;;;;;11.45;2.28;;;;;;;32.13;40.03;94725.69;4987595;28;20194;-78
2022/07/15 06:06:23;;;;;;;6.10;2.47;;;;;;;32.42;39.62;94729.25;4990585;28;20204;-77
2022/07/15 06:08:49;;;;;;;5.90;2.42;;;;;;;32.63;39.06;94734.41;4979112;28;20663;-79
2022/07/15 06:11:16;;;;;;;5.75;3.05;;;;;;;32.60;38.42;94697.88;4979024;28;20674;-78
2022/07/15 06:13:43;;;;;;;3.30;2.45;;;;;;;33.03;38.26;94733.34;4990860;28;20191;-76
2022/07/15 06:16:10;;;;;;;3.95;2.50;;;;;;;33.10;38.02;94717.91;4989796;28;20231;-76
2022/07/15 06:18:38;;;;;;;4.18;2.45;;;;;;;33.38;37.85;94737.56;4990640;28;20204;-76
2022/07/15 06:21:05;;;;;;;2.90;2.10;;;;;;;33.55;37.35;94741.66;4989305;28;20185;-75
2022/07/15 06:23:32;;;;;;;8.18;2.80;;;;;;;33.69;37.08;94743.38;4992341;28;20192;-77
2022/07/15 06:25:59;;;;;;;3.97;2.20;;;;;;;33.84;36.95;94734.44;4994299;28;20323;-76
2022/07/15 06:28:25;;;;;;;2.75;2.20;;;;;;;33.97;36.70;94738.31;4994309;28;20189;-76
2022/07/15 06:30:52;;;;;;;4.15;2.22;;;;;;;34.02;36.38;94727.63;4993535;28;20204;-76
2022/07/15 06:33:19;;;;;;;2.78;2.42;;;;;;;34.24;36.09;94734.25;4993588;28;20197;-76
2022/07/15 06:35:47;;;;;;;4.70;2.35;;;;;;;34.38;36.01;94741.25;4993549;28;20625;-77
2022/07/15 06:38:14;;;;;;;8.48;2.35;;;;;;;34.50;35.70;94746.16;4995672;28;20665;-77
2022/07/15 06:40:41;;;;;;;5.38;2.40;;;;;;;34.62;35.46;94738.53;4994188;28;20193;-77
2022/07/15 06:43:08;;;;;;;5.13;2.50;;;;;;;34.69;35.12;94732.88;4994358;28;20186;-77
2022/07/15 06:45:35;;;;;;;6.85;2.10;;;;;;;34.82;35.02;94734.00;4993870;28;20248;-76
2022/07/15 06:48:02;;;;;;;4.30;2.13;;;;;;;34.88;34.97;94722.19;4993993;28;20192;-77
2022/07/15 06:50:28;;;;;;;2.30;2.10;;;;;;;35.02;34.82;94730.25;4993395;28;20678;-78
2022/07/15 06:52:58;;;;;;;4.97;2.38;;;;;;;35.06;34.56;94721.44;4993863;28;20193;-76
2022/07/15 06:55:25;;;;;;;3.22;2.55;;;;;;;35.16;34.38;94726.56;4993828;28;20189;-76
2022/07/15 06:57:52;;;;;;;6.63;2.20;;;;;;;35.30;34.64;94726.59;4992903;28;20224;-76
2022/07/15 07:00:19;;;;;;;3.15;2.13;;;;;;;35.37;34.50;94726.22;4993268;28;20197;-76
2022/07/15 07:02:47;;;;;;;3.78;2.20;;;;;;;35.42;34.24;94732.22;4993381;28;20198;-77
2022/07/15 07:05:14;;;;;;;3.83;2.08;;;;;;;35.37;34.41;94707.59;4990527;28;20200;-77
2022/07/15 07:07:40;;;;;;;4.47;2.70;;;;;;;35.56;34.18;94729.59;4993523;28;20189;-76
2022/07/15 07:10:10;;;;;;;2.67;2.15;;;;;;;35.57;34.10;94719.75;4991035;28;20204;-76
2022/07/15 07:12:38;;;;;;;2.47;2.15;;;;;;;35.52;33.94;94704.66;4985986;28;20296;-77
2022/07/15 07:15:07;;;;;;;4.30;2.20;;;;;;;35.53;34.10;94698.25;4991446;28;20724;-76
2022/07/15 07:17:34;;;;;;;4.10;2.28;;;;;;;35.75;34.03;94726.84;4985648;28;20228;-76
2022/07/15 07:20:01;;;;;;;2.45;2.08;;;;;;;35.80;34.01;94728.66;4992403;28;20202;-79
2022/07/15 07:22:28;;;;;;;3.70;2.13;;;;;;;35.86;33.90;94730.13;4990431;28;20195;-76
2022/07/15 07:24:54;;;;;;;3.20;2.17;;;;;;;35.89;33.80;94730.31;4991070;28;20196;-79
2022/07/15 07:27:23;;;;;;;4.75;2.50;;;;;;;35.93;33.65;94718.00;4986022;28;20193;-76
2022/07/15 07:29:50;;;;;;;4.20;1.80;;;;;;;35.97;33.80;94718.22;4979608;28;20194;-77
2022/07/15 07:32:16;;;;;;;7.47;2.15;;;;;;;35.99;33.88;94709.94;4987942;28;20208;-76
2022/07/15 07:34:43;;;;;;;4.93;2.30;;;;;;;35.99;33.65;94721.34;4977747;28;20202;-77
2022/07/15 07:37:10;;;;;;;3.05;2.30;;;;;;;35.99;33.91;94710.72;4981869;28;20304;-77
2022/07/15 07:39:37;;;;;;;2.83;2.25;;;;;;;35.94;33.76;94703.59;4991753;28;20569;-76
2022/07/15 07:42:04;;;;;;;3.45;2.00;;;;;;;35.95;33.71;94701.72;4992136;28;20197;-77
2022/07/15 07:44:33;;;;;;;3.13;2.03;;;;;;;36.04;33.64;94715.13;4990527;28;20213;-77
2022/07/15 07:46:59;;;;;;;2.30;2.10;;;;;;;36.05;33.67;94722.81;4983730;28;20690;-77
2022/07/15 07:49:26;;;;;;;2.20;2.00;;;;;;;36.06;33.75;94720.97;4984186;28;20204;-78
2022/07/15 07:51:53;;;;;;;3.00;2.40;;;;;;;36.07;33.65;94723.31;4988671;28;20200;-76
2022/07/15 07:54:20;;;;;;;2.78;2.45;;;;;;;36.08;33.72;94721.44;4980337;28;20643;-76
2022/07/15 07:56:47;;;;;;;1.80;1.70;;;;;;;36.06;33.59;94719.09;4975308;28;20224;-78
2022/07/15 07:59:14;;;;;;;3.72;1.95;;;;;;;36.05;33.45;94720.16;4984049;28;20204;-77
2022/07/15 08:01:43;;;;;;;2.55;2.35;;;;;;;36.04;33.39;94718.59;4981570;28;20189;-76
2022/07/15 08:04:10;;;;;;;4.75;2.25;;;;;;;36.01;33.49;94711.22;4990669;28;20193;-77
2022/07/15 08:06:38;;;;;;;2.67;2.10;;;;;;;35.99;33.56;94716.03;4986945;28;20241;-76
2022/07/15 08:09:05;;;;;;;4.28;2.30;;;;;;;35.95;33.71;94709.69;4991147;28;20203;-77
2022/07/15 08:11:32;;;;;;;2.20;2.00;;;;;;;35.84;33.59;94698.47;4983329;28;20276;-77
2022/07/15 08:13:59;;;;;;;3.10;2.47;;;;;;;35.87;33.56;94705.84;4985996;28;20277;-79
2022/07/15 08:16:26;;;;;;;3.50;2.53;;;;;;;35.68;33.65;94679.34;4980451;28;20196;-78
2022/07/15 08:18:54;;;;;;;4.20;2.45;;;;;;;35.78;33.83;94704.19;4990336;28;20644;-76
2022/07/15 08:21:21;;;;;;;3.25;2.60;;;;;;;35.74;33.69;94700.53;4987582;28;20646;-77
2022/07/15 08:23:48;;;;;;;4.60;2.30;;;;;;;35.69;33.61;94701.44;4991455;28;20204;-76
2022/07/15 08:26:22;;;;;;;2.85;2.30;;;;;;;35.63;33.80;94703.41;4990955;28;20271;-76
2022/07/15 08:28:49;;;;;;;4.97;2.45;;;;;;;35.42;33.62;94678.25;4984482;28;20189;-78
2022/07/15 08:31:16;;;;;;;5.05;2.83;;;;;;;35.50;33.57;94701.53;4990939;28;20189;-75
2022/07/15 08:33:43;;;;;;;3.75;2.50;;;;;;;35.42;33.70;94702.97;4990848;28;20204;-76
2022/07/15 08:36:11;;;;;;;2.45;2.25;;;;;;;35.35;33.54;94696.44;4980382;28;20210;-77
2022/07/15 08:38:39;;;;;;;3.53;2.60;;;;;;;35.30;33.79;94701.88;4990547;28;20217;-75
2022/07/15 08:41:06;;;;;;;4.68;2.50;;;;;;;34.98;33.95;94660.16;4991363;28;20201;-76
2022/07/15 08:43:33;;;;;;;4.10;2.63;;;;;;;35.13;33.92;94695.22;4990988;28;20217;-75
2022/07/15 08:46:02;;;;;;;3.08;2.78;;;;;;;35.04;33.76;94685.56;4988354;28;20227;-76
2022/07/15 08:48:30;;;;;;;4.55;2.70;;;;;;;34.97;33.77;94683.28;4983932;28;20197;-77
2022/07/15 08:51:00;;;;;;;3.42;2.53;;;;;;;34.89;34.14;94695.34;4978936;28;20217;-77
2022/07/15 08:53:32;;;;;;;2.95;2.47;;;;;;;34.81;34.06;94690.69;4986240;28;20272;-77
2022/07/15 08:55:59;;;;;;;2.47;2.28;;;;;;;34.68;33.91;94673.63;4990884;28;20598;-76
2022/07/15 08:58:25;;;;;;;5.55;2.47;;;;;;;34.63;34.23;94691.50;4987774;28;20217;-76
2022/07/15 09:00:53;;;;;;;4.10;2.42;;;;;;;34.48;34.41;94675.78;4985436;28;20232;-75
2022/07/15 09:03:19;;;;;;;6.00;3.00;;;;;;;34.44;34.36;94684.31;4988531;28;20193;-76
2022/07/15 09:05:46;;;;;;;5.13;2.60;;;;;;;34.17;33.80;94650.44;4990746;28;20209;-77
2022/07/15 09:08:15;;;;;;;3.05;2.17;;;;;;;34.28;34.24;94682.16;4989157;28;20204;-75
2022/07/15 09:10:51;;;;;;;2.60;2.38;;;;;;;34.15;34.47;94673.81;4979930;28;20197;-79
2022/07/15 09:13:33;;;;;;;3.25;2.50;;;;;;;34.08;34.41;94678.72;4987729;28;20288;-76
2022/07/15 09:16:02;;;;;;;2.95;2.28;;;;;;;34.00;34.70;94674.03;4982552;28;20683;-75
2022/07/15 09:18:33;;;;;;;4.80;2.53;;;;;;;33.91;34.53;94673.84;4989027;28;20727;-76
2022/07/15 09:21:01;;;;;;;10.43;3.33;;;;;;;33.77;34.95;94661.59;4982978;28;20189;-76
2022/07/15 09:23:33;;;;;;;10.38;2.80;;;;;;;33.75;34.20;94661.84;4987516;28;20196;-77
2022/07/15 09:26:23;;;;;;;3.10;2.53;;;;;;;33.90;33.90;94672.28;4991709;28;20262;-79
2022/07/15 09:28:50;;;;;;;8.82;2.40;;;;;;;33.70;33.46;94624.78;4991591;28;20328;-78
2022/07/15 09:34:15;;;;;;;12.80;2.60;;;;;;;34.18;32.99;94670.59;4991414;28;20195;-77
2022/07/15 09:36:44;;;;;;;5.32;2.60;;;;;;;34.21;33.02;94661.28;4991388;28;20181;-77
2022/07/15 09:39:11;;;;;;;5.18;2.85;;;;;;;34.34;32.40;94671.19;4991767;28;20208;-79
2022/07/15 09:41:41;;;;;;;3.58;2.45;;;;;;;34.14;31.70;94629.78;4991246;28;20201;-78
2022/07/15 09:44:10;;;;;;;9.02;3.10;;;;;;;34.40;32.15;94672.69;4991351;28;20189;-77
2022/07/15 09:46:43;;;;;;;5.00;2.28;;;;;;;34.42;32.00;94675.06;4990763;28;20232;-78
2022/07/15 09:49:12;;;;;;;4.70;2.72;;;;;;;34.43;31.96;94669.44;4991069;28;20195;-77
2022/07/15 09:51:45;;;;;;;4.70;2.65;;;;;;;33.94;32.16;94596.34;4991495;28;20193;-78
2022/07/15 09:54:13;;;;;;;2.97;2.28;;;;;;;34.45;32.22;94664.63;4991842;28;20189;-77
2022/07/15 09:56:41;;;;;;;3.58;2.20;;;;;;;34.47;32.03;94666.22;4990800;28;20212;-77
2022/07/15 09:59:09;;;;;;;7.57;3.25;;;;;;;34.32;31.56;94645.97;4990437;28;20196;-77
2022/07/15 10:01:36;;;;;;;4.30;2.38;;;;;;;34.43;31.63;94664.13;4991032;28;20637;-78
2022/07/15 10:04:04;;;;;;;3.15;2.90;;;;;;;34.41;31.60;94668.97;4991591;28;20185;-78
2022/07/15 10:06:35;;;;;;;4.32;2.45;;;;;;;34.19;31.20;94636.88;4991183;28;20200;-77
2022/07/15 10:09:04;;;;;;;3.55;2.00;;;;;;;34.33;31.58;94666.16;4990985;28;20694;-78
2022/07/15 10:11:34;;;;;;;4.85;2.40;;;;;;;34.28;31.09;94664.34;4990934;28;20276;-77
2022/07/15 10:14:42;;;;;;;2.42;2.22;;;;;;;34.23;31.54;94656.47;4990658;28;20201;-77
2022/07/15 10:17:35;;;;;;;2.53;2.17;;;;;;;34.18;31.91;94654.66;4990606;28;20224;-77
2022/07/15 10:20:25;;;;;;;2.70;2.50;;;;;;;34.15;31.73;94659.75;4990699;28;20189;-78
2022/07/15 10:22:58;;;;;;;4.03;2.55;;;;;;;34.04;32.18;94637.88;4990058;28;20208;-78
2022/07/15 10:25:40;;;;;;;5.15;2.20;;;;;;;33.94;31.92;94628.19;4991326;28;20215;-78
2022/07/15 10:28:13;;;;;;;2.38;2.05;;;;;;;34.05;31.38;94650.06;4991074;28;20213;-77
2022/07/15 10:30:43;;;;;;;2.25;2.00;;;;;;;34.01;31.71;94651.72;4990555;28;20209;-77
2022/07/15 10:33:20;;;;;;;3.55;1.92;;;;;;;33.98;31.78;94651.50;4990371;28;20188;-77
2022/07/15 10:35:49;;;;;;;2.55;1.92;;;;;;;33.90;30.92;94642.31;4990769;28;20189;-76
2022/07/15 10:38:31;;;;;;;3.85;2.17;;;;;;;33.90;31.36;94655.56;4990327;28;20235;-77
2022/07/15 10:41:09;;;;;;;4.55;2.67;;;;;;;33.86;31.56;94651.91;4990824;28;20637;-78
2022/07/15 10:43:44;;;;;;;5.25;2.45;;;;;;;33.81;31.82;94636.03;4990515;28;20196;-77
2022/07/15 10:46:23;;;;;;;2.28;2.08;;;;;;;33.75;31.87;94630.00;4990879;28;20643;-77
2022/07/15 10:48:51;;;;;;;3.08;2.55;;;;;;;33.73;31.61;94637.47;4990891;28;20197;-78
2022/07/15 10:51:45;;;;;;;2.22;2.03;;;;;;;33.71;31.93;94632.44;4990651;28;20189;-78
2022/07/15 10:54:42;;;;;;;2.88;2.13;;;;;;;33.68;32.08;94629.59;4990688;28;20208;-77
2022/07/15 10:57:10;;;;;;;3.38;2.10;;;;;;;33.67;31.79;94635.94;4990493;28;20686;-76
2022/07/15 10:59:41;;;;;;;3.70;1.90;;;;;;;33.64;31.86;94628.56;4990556;28;20201;-79
2022/07/15 11:02:21;;;;;;;4.18;2.08;;;;;;;33.60;31.92;94623.03;4990698;28;20201;-79
2022/07/15 11:04:48;;;;;;;2.53;1.88;;;;;;;33.58;32.04;94632.34;4990899;28;20259;-76
2022/07/15 11:07:28;;;;;;;3.80;2.20;;;;;;;33.56;31.79;94618.59;4990273;28;20204;-77
2022/07/15 11:09:57;;;;;;;3.45;1.90;;;;;;;33.25;31.93;94570.38;4992866;28;20583;-77
2022/07/15 11:12:45;;;;;;;2.47;2.28;;;;;;;33.40;32.30;94599.38;4993802;28;20193;-78
2022/07/15 11:15:13;;;;;;;2.33;2.13;;;;;;;33.43;31.86;94617.38;4990445;28;20193;-75
2022/07/15 11:17:44;;;;;;;3.53;1.83;;;;;;;33.39;31.47;94609.19;4988214;28;20217;-76
2022/07/15 11:20:12;;;;;;;3.17;2.42;;;;;;;33.42;31.80;94613.94;4988685;28;20192;-75
2022/07/15 11:22:41;;;;;;;3.10;1.98;;;;;;;33.39;32.14;94611.84;4988310;28;20192;-76
2022/07/15 11:25:17;;;;;;;4.45;1.90;;;;;;;33.38;31.72;94612.94;4984177;28;20564;-78
2022/07/15 11:27:57;;;;;;;3.67;1.95;;;;;;;33.35;31.58;94610.06;4983387;28;20207;-79
2022/07/15 11:30:24;;;;;;;2.35;2.13;;;;;;;33.09;31.42;94569.78;4992078;28;20201;-75
2022/07/15 11:32:58;;;;;;;3.83;1.80;;;;;;;33.31;31.53;94609.03;4986167;28;20197;-75
2022/07/15 11:35:25;;;;;;;3.05;2.20;;;;;;;33.26;31.49;94599.28;4986814;28;20178;-75
2022/07/15 11:37:59;;;;;;;2.97;2.10;;;;;;;33.16;31.79;94592.25;4988748;28;20628;-75
2022/07/15 11:46:01;;;;;;;2.10;1.85;;;;;;;33.06;32.07;94592.34;4983012;28;20243;-75
2022/07/15 11:48:34;;;;;;;2.60;2.40;;;;;;;33.00;32.43;94588.16;4980455;28;20201;-75
2022/07/15 11:51:01;;;;;;;2.17;1.98;;;;;;;32.86;32.69;94576.59;4981273;28;20284;-77
2022/07/15 11:53:28;;;;;;;2.45;2.25;;;;;;;32.93;32.31;94585.06;4989065;28;20686;-76
2022/07/15 11:55:57;;;;;;;1.90;1.80;;;;;;;32.84;33.11;94579.53;4987737;28;20220;-76
2022/07/15 11:58:31;;;;;;;2.22;1.92;;;;;;;32.84;32.68;94584.06;4979137;28;20229;-76
2022/07/15 12:00:59;;;;;;;3.45;2.13;;;;;;;32.80;32.30;94583.81;4980673;28;20193;-75
2022/07/15 12:03:34;;;;;;;3.70;2.25;;;;;;;32.66;32.65;94561.72;4985570;28;20201;-78
2022/07/15 12:06:02;;;;;;;4.68;2.17;;;;;;;32.73;32.80;94572.78;4987878;28;20291;-77
2022/07/15 12:08:39;;;;;;;3.58;2.20;;;;;;;32.71;32.77;94580.19;4979568;28;20202;-76
2022/07/15 12:11:19;;;;;;;3.22;1.83;;;;;;;32.61;32.70;94567.84;4989545;28;20308;-76
2022/07/15 12:13:49;;;;;;;4.03;2.22;;;;;;;32.50;32.80;94557.63;4978132;28;20193;-77
2022/07/15 12:16:25;;;;;;;2.30;2.10;;;;;;;32.52;33.17;94555.50;4979216;28;20604;-79
2022/07/15 12:18:55;;;;;;;2.10;1.90;;;;;;;32.61;33.42;94583.75;4978822;28;20225;-76
2022/07/15 12:21:22;;;;;;;2.90;2.15;;;;;;;32.59;33.22;94577.91;4981973;28;20189;-76
2022/07/15 12:24:08;;;;;;;4.28;2.03;;;;;;;32.58;33.17;94584.28;4985472;28;20678;-76
2022/07/15 12:26:38;;;;;;;2.75;2.50;;;;;;;32.54;32.87;94575.31;4991841;28;20192;-76
2022/07/15 12:29:08;;;;;;;1.90;1.80;;;;;;;32.51;33.16;94567.94;4988055;28;20190;-77
2022/07/15 12:31:37;;;;;;;2.30;2.08;;;;;;;32.49;33.17;94566.63;4987627;28;20661;-77
2022/07/15 12:34:06;;;;;;;2.05;1.70;;;;;;;32.47;33.23;94569.53;4991325;28;20231;-79
2022/07/15 12:36:37;;;;;;;3.95;2.20;;;;;;;32.44;33.55;94562.19;4984729;28;20189;-78
2022/07/15 12:39:18;;;;;;;2.00;1.90;;;;;;;32.42;33.35;94562.44;4979697;28;20228;-76
2022/07/15 12:41:46;;;;;;;2.22;2.03;;;;;;;32.41;33.38;94568.03;4992678;28;20189;-75
2022/07/15 12:44:13;;;;;;;1.95;1.85;;;;;;;32.36;33.88;94570.69;4990772;28;20675;-77
2022/07/15 12:46:56;;;;;;;5.78;2.22;;;;;;;32.19;34.28;94540.09;4991072;28;20610;-77
2022/07/15 12:49:50;;;;;;;2.15;2.00;;;;;;;32.27;34.28;94565.19;4990997;28;20664;-78
2022/07/15 12:52:23;;;;;;;2.97;2.03;;;;;;;32.06;34.42;94532.81;4986116;28;20193;-76
2022/07/15 12:54:52;;;;;;;3.85;2.20;;;;;;;31.94;34.37;94529.72;4991000;28;20197;-77
2022/07/15 12:57:26;;;;;;;7.30;2.40;;;;;;;32.13;34.41;94561.63;4984744;28;20197;-77
2022/07/15 12:59:55;;;;;;;5.82;2.42;;;;;;;32.09;34.42;94557.94;4980962;28;20232;-76
2022/07/15 13:02:22;;;;;;;5.22;2.05;;;;;;;32.05;34.43;94554.25;4988641;28;20217;-76
2022/07/15 13:04:50;;;;;;;4.45;2.17;;;;;;;31.65;34.52;94498.69;4980809;28;20236;-77
2022/07/15 13:07:18;;;;;;;3.25;1.98;;;;;;;31.91;34.52;94551.41;4984910;28;20572;-78
2022/07/15 13:09:46;;;;;;;5.47;2.30;;;;;;;31.95;34.95;94561.22;4990463;28;20193;-77
2022/07/15 13:12:22;;;;;;;5.00;2.05;;;;;;;31.87;35.08;94553.84;4984777;28;20193;-77
2022/07/15 13:14:49;;;;;;;4.80;2.25;;;;;;;31.84;34.90;94546.44;4988417;28;20205;-77
2022/07/15 13:17:16;;;;;;;2.38;2.17;;;;;;;31.90;34.75;94563.06;4989754;28;20204;-76
2022/07/15 13:19:43;;;;;;;2.80;2.10;;;;;;;31.86;34.84;94562.81;4979519;28;20217;-77
2022/07/15 13:22:11;;;;;;;4.78;2.17;;;;;;;31.84;35.06;94562.31;4986234;28;20201;-76
2022/07/15 13:24:38;;;;;;;4.40;2.20;;;;;;;31.76;35.17;94546.22;4989017;28;20185;-76
2022/07/15 13:27:05;;;;;;;3.28;2.70;;;;;;;31.75;34.87;94544.63;4980213;28;20256;-76
2022/07/15 13:29:32;;;;;;;2.65;2.17;;;;;;;31.78;34.84;94559.94;4990094;28;20251;-77
2022/07/15 13:31:59;;;;;;;2.03;1.90;;;;;;;31.73;34.88;94553.63;4978842;28;20202;-78
2022/07/15 13:34:26;;;;;;;2.88;2.00;;;;;;;31.72;35.17;94551.25;4988714;28;20200;-77
2022/07/15 13:36:52;;;;;;;2.33;2.13;;;;;;;31.65;34.99;94550.75;4980371;28;20197;-76
2022/07/15 13:39:21;;;;;;;3.17;2.03;;;;;;;31.67;34.89;94554.72;4975533;28;20221;-75
2022/07/15 13:41:48;;;;;;;2.53;2.33;;;;;;;31.67;34.70;94553.94;4985292;28;20574;-77
2022/07/15 13:44:15;;;;;;;2.50;2.30;;;;;;;31.65;34.60;94548.94;4983240;28;20202;-76
2022/07/15 13:46:42;;;;;;;2.50;2.20;;;;;;;31.63;34.38;94551.03;4986821;28;20611;-75
2022/07/15 13:49:09;;;;;;;3.33;2.03;;;;;;;31.58;34.58;94545.78;4978924;28;20190;-76
2022/07/15 13:51:36;;;;;;;2.58;2.20;;;;;;;31.62;34.97;94553.97;4976994;28;20185;-75
2022/07/15 13:54:03;;;;;;;5.55;2.30;;;;;;;31.60;34.83;94551.56;4988291;28;20200;-77
2022/07/15 13:56:31;;;;;;;2.65;2.20;;;;;;;31.61;34.67;94553.19;4988217;28;20201;-76
2022/07/15 13:58:59;;;;;;;4.40;2.20;;;;;;;31.62;35.09;94552.09;4982438;28;20224;-76
2022/07/15 14:01:27;;;;;;;3.50;2.10;;;;;;;31.63;34.42;94555.53;4979403;28;20200;-74
2022/07/15 14:03:54;;;;;;;2.25;2.05;;;;;;;31.58;34.69;94542.34;4980332;28;20283;-75
2022/07/15 14:06:21;;;;;;;2.22;2.05;;;;;;;31.64;34.63;94549.19;4988309;28;20204;-75
2022/07/15 14:08:48;;;;;;;12.77;3.13;;;;;;;31.57;34.70;94530.19;4987072;28;20556;-75
2022/07/15 14:11:15;;;;;;;2.15;2.03;;;;;;;31.63;34.44;94543.09;4976641;28;20193;-76
2022/07/15 14:13:44;;;;;;;2.63;2.40;;;;;;;31.64;34.75;94546.53;4985072;28;20192;-76
2022/07/15 14:16:11;;;;;;;2.95;2.30;;;;;;;31.46;34.72;94521.53;4983423;28;20603;-75
2022/07/15 14:18:43;;;;;;;2.22;2.03;;;;;;;31.61;35.06;94544.47;4988281;28;20232;-76
2022/07/15 14:21:10;;;;;;;2.20;2.05;;;;;;;31.52;34.46;94544.25;4983729;28;20197;-75
2022/07/15 14:23:37;;;;;;;2.70;2.50;;;;;;;31.58;34.81;94545.00;4973375;28;20212;-76
2022/07/15 14:26:05;;;;;;;2.47;2.28;;;;;;;31.57;34.93;94546.06;4979284;28;20209;-75
2022/07/15 14:28:32;;;;;;;2.35;2.15;;;;;;;31.55;34.95;94548.97;4984358;28;20631;-75
2022/07/15 14:31:00;;;;;;;2.40;2.20;;;;;;;31.39;34.95;94528.94;4977709;28;20281;-76
2022/07/15 14:33:27;;;;;;;2.90;2.22;;;;;;;31.42;35.04;94534.50;4986305;28;20195;-77
2022/07/15 14:35:56;;;;;;;2.30;2.10;;;;;;;31.46;34.82;94548.75;4989233;28;20193;-77
2022/07/15 14:38:23;;;;;;;2.20;2.00;;;;;;;31.44;35.17;94547.44;4985754;28;20194;-76
2022/07/15 14:40:49;;;;;;;2.75;2.40;;;;;;;31.42;34.95;94544.28;4975312;28;20263;-77
2022/07/15 14:43:17;;;;;;;2.65;2.45;;;;;;;31.41;34.84;94542.69;4985176;28;20189;-77
2022/07/15 14:45:43;;;;;;;2.40;2.20;;;;;;;31.36;34.70;94538.22;4991345;28;20237;-76
2022/07/15 14:48:12;;;;;;;2.67;2.00;;;;;;;31.38;34.72;94530.03;4986773;28;20202;-78